createdAt,value
2022-09-25T00:00:36.725Z,6.70
2022-09-25T00:03:03.722Z,11.35
2022-09-25T00:05:30.109Z,6.72
2022-09-25T00:07:56.427Z,6.35
2022-09-25T00:10:25.222Z,7.03
2022-09-25T00:12:51.785Z,5.40
2022-09-25T00:15:18.163Z,6.93
2022-09-25T00:17:44.448Z,5.72
2022-09-25T00:20:10.756Z,7.88
2022-09-25T00:22:37.050Z,9.75
2022-09-25T00:25:03.673Z,7.40
2022-09-25T00:27:30.020Z,8.20
2022-09-25T00:29:56.309Z,10.55
2022-09-25T00:32:22.854Z,7.80
2022-09-25T00:34:49.173Z,7.65
2022-09-25T00:37:15.468Z,8.68
2022-09-25T00:39:41.782Z,8.07
2022-09-25T00:42:10.991Z,5.10
2022-09-25T00:44:43.334Z,6.85
2022-09-25T00:47:11.055Z,6.65
2022-09-25T00:49:37.733Z,7.30
2022-09-25T00:52:06.601Z,5.95
2022-09-25T00:54:41.862Z,6.00
2022-09-25T00:57:10.756Z,5.43
2022-09-25T00:59:39.119Z,3.15
2022-09-25T01:02:05.950Z,6.10
2022-09-25T01:04:34.500Z,4.95
2022-09-25T01:07:00.851Z,4.90
2022-09-25T01:09:27.954Z,5.53
2022-09-25T01:11:56.827Z,4.35
2022-09-25T01:14:23.091Z,4.57
2022-09-25T01:16:49.425Z,3.88
2022-09-25T01:19:27.713Z,5.70
2022-09-25T01:22:04.127Z,5.55
2022-09-25T01:24:33.384Z,7.20
2022-09-25T01:27:15.019Z,5.55
2022-09-25T01:29:44.359Z,5.60
2022-09-25T01:32:10.596Z,4.07
2022-09-25T01:34:45.034Z,8.38
2022-09-25T01:37:32.342Z,6.18
2022-09-25T01:40:04.827Z,3.45
2022-09-25T01:42:36.904Z,3.00
2022-09-25T01:45:06.033Z,2.95
2022-09-25T01:47:36.077Z,3.78
2022-09-25T01:50:05.926Z,3.92
2022-09-25T01:52:36.835Z,2.70
2022-09-25T01:57:32.569Z,2.42
2022-09-25T02:00:02.810Z,2.67
2022-09-25T02:02:33.844Z,3.35
2022-09-25T02:05:09.528Z,4.43
2022-09-25T02:07:39.817Z,3.53
2022-09-25T02:10:12.656Z,5.65
2022-09-25T02:12:43.343Z,3.60
2022-09-25T02:15:11.814Z,2.85
2022-09-25T02:17:59.164Z,3.00
2022-09-25T02:20:34.368Z,3.95
2022-09-25T02:23:10.742Z,3.90
2022-09-25T02:25:40.062Z,3.38
2022-09-25T02:28:08.735Z,3.60
2022-09-25T02:30:35.152Z,4.88
2022-09-25T02:33:01.677Z,5.65
2022-09-25T02:35:28.445Z,5.72
2022-09-25T02:37:56.342Z,3.88
2022-09-25T02:40:34.427Z,4.78
2022-09-25T02:43:07.002Z,4.32
2022-09-25T02:45:33.415Z,3.50
2022-09-25T02:48:03.517Z,5.72
2022-09-25T02:50:36.588Z,4.78
2022-09-25T02:53:05.869Z,6.40
2022-09-25T02:55:47.832Z,3.03
2022-09-25T02:58:14.230Z,3.47
2022-09-25T03:00:41.847Z,4.63
2022-09-25T03:03:10.179Z,2.28
2022-09-25T03:05:39.685Z,2.42
2022-09-25T03:08:25.247Z,2.78
2022-09-25T03:10:51.591Z,4.60
2022-09-25T03:13:19.631Z,2.83
2022-09-25T03:15:48.410Z,5.35
2022-09-25T03:18:14.839Z,2.45
2022-09-25T03:20:41.899Z,2.85
2022-09-25T03:23:08.160Z,4.10
2022-09-25T03:25:34.505Z,3.15
2022-09-25T03:28:00.859Z,4.43
2022-09-25T03:30:29.376Z,2.40
2022-09-25T03:32:55.974Z,5.40
2022-09-25T03:35:22.807Z,2.75
2022-09-25T03:37:49.099Z,2.80
2022-09-25T03:40:15.521Z,4.60
2022-09-25T03:42:43.153Z,4.35
2022-09-25T03:45:10.588Z,3.88
2022-09-25T03:47:37.079Z,3.35
2022-09-25T03:50:03.414Z,2.88
2022-09-25T03:52:29.656Z,3.40
2022-09-25T03:54:55.939Z,10.07
2022-09-25T03:57:22.206Z,2.40
2022-09-25T03:59:48.429Z,3.58
2022-09-25T04:02:14.761Z,3.67
2022-09-25T04:04:41.063Z,5.53
2022-09-25T04:07:08.624Z,1.92
2022-09-25T04:09:34.867Z,3.08
2022-09-25T04:12:01.244Z,4.18
2022-09-25T04:14:27.516Z,4.35
2022-09-25T04:16:53.815Z,2.95
2022-09-25T04:19:20.105Z,4.53
2022-09-25T04:21:46.389Z,2.03
2022-09-25T04:24:31.423Z,2.20
2022-09-25T04:26:57.721Z,3.13
2022-09-25T04:29:24.823Z,6.20
2022-09-25T04:32:11.048Z,5.20
2022-09-25T04:34:37.737Z,3.42
2022-09-25T04:37:04.045Z,3.60
2022-09-25T04:39:30.485Z,3.30
2022-09-25T04:41:56.732Z,3.28
2022-09-25T04:44:23.041Z,4.65
2022-09-25T04:46:49.406Z,3.80
2022-09-25T04:49:15.695Z,4.07
2022-09-25T04:51:41.950Z,4.57
2022-09-25T04:54:08.213Z,3.88
2022-09-25T04:56:34.489Z,5.05
2022-09-25T04:59:00.769Z,5.30
2022-09-25T05:01:27.118Z,3.47
2022-09-25T05:03:54.149Z,3.97
2022-09-25T05:06:21.197Z,4.50
2022-09-25T05:08:49.363Z,6.05
2022-09-25T05:11:15.979Z,3.90
2022-09-25T05:13:46.376Z,5.55
2022-09-25T05:16:12.675Z,5.78
2022-09-25T05:18:38.943Z,8.40
2022-09-25T05:21:05.324Z,4.43
2022-09-25T05:23:31.640Z,6.05
2022-09-25T05:26:00.643Z,4.65
2022-09-25T05:28:26.906Z,5.70
2022-09-25T05:30:53.484Z,6.82
2022-09-25T05:33:19.817Z,4.35
2022-09-25T05:35:46.405Z,10.15
2022-09-25T05:38:12.698Z,4.40
2022-09-25T05:40:42.089Z,5.45
2022-09-25T05:43:08.423Z,3.92
2022-09-25T05:45:35.970Z,4.15
2022-09-25T05:48:03.581Z,4.38
2022-09-25T05:50:32.191Z,5.03
2022-09-25T05:52:59.321Z,8.02
2022-09-25T05:55:25.757Z,6.78
2022-09-25T05:57:52.120Z,3.80
2022-09-25T06:00:18.714Z,3.50
2022-09-25T06:02:45.085Z,3.10
2022-09-25T06:05:14.467Z,4.00
2022-09-25T06:07:40.738Z,3.38
2022-09-25T06:10:07.630Z,6.57
2022-09-25T06:12:33.882Z,5.07
2022-09-25T06:15:00.734Z,3.65
2022-09-25T06:17:27.026Z,3.13
2022-09-25T06:19:53.433Z,3.30
2022-09-25T06:22:19.729Z,5.10
2022-09-25T06:24:46.929Z,5.07
2022-09-25T06:27:13.185Z,4.75
2022-09-25T06:29:41.875Z,7.68
2022-09-25T06:32:08.511Z,6.47
2022-09-25T06:34:34.783Z,6.40
2022-09-25T06:37:01.153Z,7.32
2022-09-25T06:39:27.461Z,5.78
2022-09-25T06:41:54.098Z,3.65
2022-09-25T06:44:21.043Z,4.57
2022-09-25T06:46:54.572Z,3.50
2022-09-25T06:49:21.616Z,4.80
2022-09-25T06:51:48.371Z,4.40
2022-09-25T06:54:14.735Z,4.50
2022-09-25T06:56:41.228Z,5.15
2022-09-25T06:59:09.127Z,5.88
2022-09-25T07:01:35.660Z,4.85
2022-09-25T07:04:03.935Z,8.65
2022-09-25T07:06:31.553Z,6.75
2022-09-25T07:08:58.081Z,5.20
2022-09-25T07:11:28.440Z,6.00
2022-09-25T07:13:57.796Z,7.40
2022-09-25T07:16:26.205Z,8.75
2022-09-25T07:18:53.466Z,7.78
2022-09-25T07:21:20.699Z,5.72
2022-09-25T07:23:48.631Z,8.60
2022-09-25T07:26:16.558Z,8.25
2022-09-25T07:28:43.685Z,9.18
2022-09-25T07:31:14.680Z,13.20
2022-09-25T07:33:41.229Z,8.82
2022-09-25T07:36:08.327Z,8.65
2022-09-25T07:38:36.807Z,13.40
2022-09-25T07:41:05.498Z,9.15
2022-09-25T07:43:34.720Z,9.13
2022-09-25T07:46:01.088Z,8.57
2022-09-25T07:48:30.577Z,6.72
2022-09-25T07:51:03.720Z,6.40
2022-09-25T07:53:30.425Z,5.90
2022-09-25T07:56:06.451Z,7.60
2022-09-25T07:58:35.134Z,5.55
2022-09-25T08:01:02.482Z,5.13
2022-09-25T08:03:29.104Z,4.65
2022-09-25T08:05:59.355Z,3.92
2022-09-25T08:08:26.583Z,5.60
2022-09-25T08:10:53.646Z,3.67
2022-09-25T08:13:21.297Z,6.68
2022-09-25T08:15:48.793Z,4.88
2022-09-25T08:18:15.100Z,5.60
2022-09-25T09:06:37.226Z,9.80
2022-09-25T09:09:16.080Z,5.28
2022-09-25T09:11:48.371Z,6.55
2022-09-25T09:14:17.218Z,7.07
2022-09-25T09:16:51.832Z,5.15
2022-09-25T09:19:18.107Z,5.55
2022-09-25T09:21:57.363Z,4.90
2022-09-25T09:24:23.608Z,8.68
2022-09-25T09:26:59.037Z,3.92
2022-09-25T09:29:28.278Z,6.28
2022-09-25T09:32:15.347Z,5.63
2022-09-25T09:35:04.166Z,4.65
2022-09-25T09:37:31.600Z,11.10
2022-09-25T09:39:57.986Z,7.75
2022-09-25T09:42:33.260Z,6.25
2022-09-25T09:45:17.244Z,6.65
2022-09-25T09:47:55.952Z,5.35
2022-09-25T09:50:42.504Z,7.25
2022-09-25T09:53:20.947Z,4.57
2022-09-25T09:55:50.682Z,5.45
2022-09-25T09:58:20.053Z,6.97
2022-09-25T10:00:48.283Z,6.10
2022-09-25T10:03:23.668Z,4.95
2022-09-25T10:05:52.024Z,6.20
2022-09-25T10:08:18.288Z,5.13
2022-09-25T10:10:45.641Z,8.40
2022-09-25T10:13:15.209Z,5.30
2022-09-25T10:15:56.519Z,5.80
2022-09-25T10:18:24.839Z,7.00
2022-09-25T10:20:57.226Z,4.85
2022-09-25T10:23:38.745Z,5.20
2022-09-25T10:26:23.732Z,6.32
2022-09-25T10:28:50.031Z,3.50
2022-09-25T10:31:17.633Z,7.05
2022-09-25T10:33:57.417Z,4.85
2022-09-25T10:36:44.044Z,2.83
2022-09-25T10:39:44.760Z,4.63
2022-09-25T10:42:32.995Z,5.28
2022-09-25T10:44:59.379Z,6.82
2022-09-25T10:47:49.341Z,5.20
2022-09-25T10:50:21.533Z,6.40
2022-09-25T10:52:54.842Z,4.38
2022-09-25T10:55:30.212Z,8.30
2022-09-25T10:58:11.938Z,5.97
2022-09-25T11:00:42.865Z,6.90
2022-09-25T11:03:17.272Z,4.18
2022-09-25T11:05:49.738Z,4.55
2022-09-25T11:08:16.314Z,5.53
2022-09-25T11:10:53.036Z,4.75
2022-09-25T11:13:28.449Z,3.17
2022-09-25T11:16:09.463Z,2.53
2022-09-25T11:18:38.015Z,6.43
2022-09-25T11:21:05.233Z,5.05
2022-09-25T11:23:34.498Z,5.82
2022-09-25T11:26:09.395Z,4.50
2022-09-25T11:28:54.569Z,3.33
2022-09-25T11:31:21.543Z,7.32
2022-09-25T11:33:52.835Z,4.20
2022-09-25T11:36:22.166Z,3.83
2022-09-25T11:39:07.195Z,3.70
2022-09-25T11:41:45.161Z,4.78
2022-09-25T11:44:23.522Z,3.72
2022-09-25T11:47:05.327Z,2.65
2022-09-25T11:49:41.209Z,6.60
2022-09-25T11:52:13.937Z,4.35
2022-09-25T11:54:47.933Z,5.32
2022-09-25T11:57:21.620Z,2.72
2022-09-25T11:59:47.861Z,3.28
2022-09-25T12:02:21.361Z,1.77
2022-09-25T12:05:00.059Z,2.97
2022-09-25T12:07:34.346Z,2.95
2022-09-25T12:10:36.312Z,3.47
2022-09-25T12:13:16.128Z,3.17
2022-09-25T12:16:00.656Z,3.97
2022-09-25T12:18:42.557Z,3.50
2022-09-25T12:21:19.349Z,3.75
2022-09-25T12:23:55.959Z,3.63
2022-09-25T12:26:31.232Z,2.60
2022-09-25T12:29:06.785Z,3.35
2022-09-25T12:31:33.008Z,5.07
2022-09-25T12:34:08.498Z,4.10
2022-09-25T12:36:36.554Z,2.40
2022-09-25T12:39:12.071Z,3.38
2022-09-25T12:41:43.281Z,2.67
2022-09-25T12:44:27.168Z,3.13
2022-09-25T12:46:57.554Z,3.13
2022-09-25T12:49:29.194Z,5.60
2022-09-25T12:51:58.357Z,4.65
2022-09-25T12:54:32.097Z,4.53
2022-09-25T12:57:18.720Z,2.95
2022-09-25T12:59:48.029Z,5.25
2022-09-25T13:02:29.697Z,2.38
2022-09-25T13:04:58.985Z,4.55
2022-09-25T13:07:35.397Z,2.83
2022-09-25T13:10:03.704Z,3.97
2022-09-25T13:12:37.655Z,4.15
2022-09-25T13:15:12.906Z,2.85
2022-09-25T13:17:42.513Z,3.58
2022-09-25T13:20:27.027Z,2.10
2022-09-25T13:23:02.518Z,3.53
2022-09-25T13:25:41.672Z,3.33
2022-09-25T13:28:09.161Z,4.15
2022-09-25T13:30:35.843Z,3.85
2022-09-25T13:33:03.199Z,3.20
2022-09-25T13:35:31.800Z,2.85
2022-09-25T13:38:10.260Z,1.75
2022-09-25T13:40:45.888Z,3.17
2022-09-25T13:43:24.019Z,2.30
2022-09-25T13:46:09.297Z,4.47
2022-09-25T13:48:40.402Z,5.93
2022-09-25T13:51:29.921Z,7.03
2022-09-25T13:54:02.389Z,3.03
2022-09-25T13:56:40.859Z,3.60
2022-09-25T13:59:10.715Z,3.90
2022-09-25T14:01:38.719Z,3.42
2022-09-25T14:04:28.391Z,3.78
2022-09-25T14:06:58.201Z,3.08
2022-09-25T14:09:28.181Z,6.53
2022-09-25T14:12:05.101Z,2.88
2022-09-25T14:14:55.656Z,5.05
2022-09-25T14:17:23.236Z,2.30
2022-09-25T14:19:51.109Z,1.90
2022-09-25T14:22:20.107Z,3.40
2022-09-25T14:24:47.601Z,2.97
2022-09-25T14:27:18.689Z,5.25
2022-09-25T14:29:44.931Z,3.47
2022-09-25T14:32:43.201Z,3.78
2022-09-25T14:35:16.318Z,2.83
2022-09-25T14:37:58.077Z,2.42
2022-09-25T14:40:39.987Z,3.45
2022-09-25T14:43:27.327Z,3.13
2022-09-25T14:46:10.246Z,3.60
2022-09-25T14:48:43.136Z,4.72
2022-09-25T14:53:40.217Z,3.63
2022-09-25T14:56:11.915Z,3.80
2022-09-25T14:58:40.725Z,4.18
2022-09-25T15:01:20.370Z,3.10
2022-09-25T15:03:48.735Z,3.65
2022-09-25T15:06:28.943Z,4.20
2022-09-25T15:08:55.493Z,4.40
2022-09-25T15:11:23.573Z,5.40
2022-09-25T15:13:49.817Z,3.25
2022-09-25T15:16:39.452Z,5.32
2022-09-25T15:19:28.759Z,3.58
2022-09-25T15:21:55.358Z,4.75
2022-09-25T15:24:24.367Z,4.20
2022-09-25T15:26:52.584Z,4.38
2022-09-25T15:29:21.028Z,4.00
2022-09-25T15:31:51.155Z,3.20
2022-09-25T15:34:23.420Z,5.57
2022-09-25T15:36:50.817Z,4.80
2022-09-25T15:39:24.894Z,4.68
2022-09-25T15:41:51.260Z,4.03
2022-09-25T15:44:19.241Z,6.55
2022-09-25T15:46:46.910Z,3.53
2022-09-25T15:49:14.598Z,2.95
2022-09-25T15:51:51.915Z,2.15
2022-09-25T15:54:25.751Z,6.47
2022-09-25T15:56:55.200Z,2.85
2022-09-25T15:59:26.097Z,1.95
2022-09-25T16:02:12.469Z,2.08
2022-09-25T16:04:49.249Z,3.92
2022-09-25T16:07:24.869Z,3.53
2022-09-25T16:09:52.398Z,2.17
2022-09-25T16:12:29.762Z,4.18
2022-09-25T16:14:56.618Z,4.55
2022-09-25T16:17:25.049Z,3.10
2022-09-25T16:20:01.860Z,3.05
2022-09-25T16:22:30.669Z,3.05
2022-09-25T16:24:57.223Z,3.72
2022-09-25T16:27:25.868Z,3.40
2022-09-25T16:29:52.962Z,4.63
2022-09-25T16:32:21.054Z,1.90
2022-09-25T16:34:58.372Z,2.65
2022-09-25T16:37:28.387Z,5.03
2022-09-25T16:40:19.280Z,4.18
2022-09-25T16:42:47.299Z,3.53
2022-09-25T16:45:15.877Z,4.25
2022-09-25T16:47:45.580Z,4.82
2022-09-25T16:50:15.380Z,4.53
2022-09-25T16:52:43.247Z,4.40
2022-09-25T16:55:23.319Z,3.75
2022-09-25T16:57:50.820Z,3.15
2022-09-25T17:00:21.523Z,3.00
2022-09-25T17:05:19.314Z,4.63
2022-09-25T17:07:46.613Z,4.07
2022-09-25T17:10:15.898Z,4.82
2022-09-25T17:12:43.590Z,5.47
2022-09-25T17:15:17.844Z,4.38
2022-09-25T17:17:44.203Z,6.75
2022-09-25T17:20:11.229Z,5.80
2022-09-25T17:22:37.600Z,4.97
2022-09-25T17:25:08.489Z,4.28
2022-09-25T17:27:35.103Z,4.35
2022-09-25T17:30:01.579Z,3.25
2022-09-25T17:32:29.258Z,3.60
2022-09-25T17:34:58.192Z,3.50
2022-09-25T17:37:24.439Z,4.07
2022-09-25T17:39:50.900Z,5.07
2022-09-25T17:42:17.237Z,3.38
2022-09-25T17:44:43.956Z,5.43
2022-09-25T17:47:10.505Z,5.35
2022-09-25T17:49:36.768Z,2.85
2022-09-25T17:52:03.409Z,4.55
2022-09-25T17:54:31.555Z,6.40
2022-09-25T17:56:57.831Z,4.85
2022-09-25T17:59:24.057Z,3.10
2022-09-25T18:01:50.954Z,3.97
2022-09-25T18:04:21.857Z,4.07
2022-09-25T18:09:14.494Z,3.38
2022-09-25T18:11:44.163Z,7.20
2022-09-25T18:14:11.744Z,4.40
2022-09-25T18:16:39.443Z,5.07
2022-09-25T18:19:24.464Z,4.63
2022-09-25T18:22:09.277Z,6.28
2022-09-25T18:24:35.571Z,6.78
2022-09-25T18:27:01.973Z,8.07
2022-09-25T18:29:28.252Z,8.70
2022-09-25T18:31:54.488Z,5.78
2022-09-25T18:34:22.696Z,5.30
2022-09-25T18:36:51.973Z,6.00
2022-09-25T18:39:20.465Z,9.10
2022-09-25T18:41:47.867Z,7.97
2022-09-25T18:44:14.620Z,8.73
2022-09-25T18:46:40.985Z,8.23
2022-09-25T18:49:07.539Z,9.05
2022-09-25T18:51:34.321Z,9.45
2022-09-25T18:54:00.623Z,9.57
2022-09-25T18:56:28.151Z,7.75
2022-09-25T18:58:54.542Z,7.63
2022-09-25T19:01:20.966Z,9.27
2022-09-25T19:03:51.913Z,9.70
2022-09-25T19:08:44.882Z,9.18
2022-09-25T19:11:12.087Z,6.70
2022-09-25T19:13:38.360Z,7.88
2022-09-25T19:16:07.011Z,5.80
2022-09-25T19:18:33.317Z,6.40
2022-09-25T19:20:59.583Z,6.15
2022-09-25T19:23:26.263Z,7.18
2022-09-25T19:25:53.776Z,9.80
2022-09-25T19:28:20.035Z,10.38
2022-09-25T19:30:54.833Z,10.75
2022-09-25T19:33:21.167Z,11.10
2022-09-25T19:35:47.567Z,9.18
2022-09-25T19:38:13.850Z,8.15
2022-09-25T19:40:40.212Z,10.98
2022-09-25T19:43:07.975Z,8.05
2022-09-25T19:45:36.116Z,8.68
2022-09-25T19:48:02.398Z,6.22
2022-09-25T19:50:28.715Z,6.50
2022-09-25T19:52:55.032Z,8.73
2022-09-25T19:55:21.350Z,7.75
2022-09-25T19:57:47.624Z,6.95
2022-09-25T20:00:15.695Z,7.20
2022-09-25T20:02:44.252Z,9.75
2022-09-25T20:05:10.624Z,7.38
2022-09-25T20:07:36.867Z,7.90
2022-09-25T20:10:03.274Z,6.82
2022-09-25T20:12:30.062Z,7.22
2022-09-25T20:14:56.346Z,8.63
2022-09-25T20:17:22.607Z,11.38
2022-09-25T20:19:48.856Z,9.15
2022-09-25T20:22:15.160Z,7.80
2022-09-25T20:24:41.389Z,8.98
2022-09-25T20:27:07.642Z,7.03
2022-09-25T20:29:33.938Z,8.18
2022-09-25T20:32:00.305Z,6.82
2022-09-25T20:34:26.546Z,7.32
2022-09-25T20:36:52.804Z,6.78
2022-09-25T20:39:21.561Z,10.52
2022-09-25T20:41:48.376Z,6.60
2022-09-25T20:44:14.772Z,9.30
2022-09-25T20:46:41.999Z,9.50
2022-09-25T20:49:10.040Z,10.35
2022-09-25T20:51:36.726Z,9.80
2022-09-25T20:54:05.309Z,10.38
2022-09-25T20:56:32.572Z,9.35
2022-09-25T20:58:59.636Z,7.93
2022-09-25T21:01:27.501Z,8.43
2022-09-25T21:03:54.279Z,7.95
2022-09-25T21:06:22.403Z,7.10
2022-09-25T21:08:52.821Z,10.50
2022-09-25T21:11:19.333Z,9.55
2022-09-25T21:13:48.486Z,8.13
2022-09-25T21:16:14.937Z,9.98
2022-09-25T21:18:42.131Z,8.55
2022-09-25T21:21:09.899Z,7.47
2022-09-25T21:23:36.589Z,9.70
2022-09-25T21:26:13.723Z,6.30
2022-09-25T21:28:40.780Z,8.48
2022-09-25T21:31:08.418Z,7.30
2022-09-25T21:33:35.004Z,5.95
2022-09-25T21:36:02.061Z,7.40
2022-09-25T21:38:28.766Z,10.60
2022-09-25T21:41:00.014Z,10.23
2022-09-25T21:43:26.677Z,7.38
2022-09-25T21:45:53.116Z,9.23
2022-09-25T21:48:20.500Z,6.63
2022-09-25T21:50:58.070Z,9.13
2022-09-25T21:53:25.513Z,9.73
2022-09-25T21:56:02.279Z,8.05
2022-09-25T21:58:29.229Z,10.10
2022-09-25T22:01:21.933Z,5.63
2022-09-25T22:03:50.067Z,7.95
2022-09-25T22:06:18.358Z,8.25
2022-09-25T22:08:45.454Z,8.57
2022-09-25T22:11:11.776Z,7.25
2022-09-25T22:13:39.799Z,6.35
2022-09-25T22:16:10.567Z,6.80
2022-09-25T22:21:03.049Z,7.55
2022-09-25T22:23:29.578Z,6.72
2022-09-25T22:25:55.825Z,7.18
2022-09-25T22:28:22.070Z,10.43
2022-09-25T22:30:48.325Z,7.38
2022-09-25T22:33:14.656Z,6.68
2022-09-25T22:35:41.033Z,7.35
2022-09-25T22:38:07.254Z,7.65
2022-09-25T22:40:35.866Z,8.00
2022-09-25T22:43:02.229Z,7.15
2022-09-25T22:45:29.140Z,8.00
2022-09-25T22:47:55.713Z,10.10
2022-09-25T22:50:22.162Z,11.02
2022-09-25T22:52:49.419Z,8.68
2022-09-25T22:55:15.723Z,8.38
2022-09-25T22:57:41.994Z,6.78
2022-09-25T23:00:09.851Z,7.93
2022-09-25T23:02:36.204Z,7.10
2022-09-25T23:05:06.305Z,8.70
2022-09-25T23:07:33.047Z,7.93
2022-09-25T23:09:59.429Z,9.35
2022-09-25T23:12:30.404Z,9.13
2022-09-25T23:14:56.956Z,7.07
2022-09-25T23:17:23.246Z,9.73
2022-09-25T23:19:49.507Z,9.40
2022-09-25T23:22:15.755Z,10.35
2022-09-25T23:24:42.008Z,11.40
2022-09-25T23:27:08.262Z,9.63
2022-09-25T23:29:34.491Z,9.70
2022-09-25T23:32:00.855Z,9.63
2022-09-25T23:34:27.133Z,7.20
2022-09-25T23:36:53.401Z,9.40
2022-09-25T23:39:20.059Z,9.23
2022-09-25T23:41:46.739Z,8.98
2022-09-25T23:44:13.041Z,8.98
2022-09-25T23:46:40.543Z,10.77
2022-09-25T23:49:06.882Z,10.70
2022-09-25T23:51:33.144Z,15.52
2022-09-25T23:53:59.961Z,10.25
2022-09-25T23:56:27.925Z,9.90
2022-09-25T23:58:55.666Z,8.95
